sensor_id;sensor_type;location;lat;lon;timestamp;pressure;altitude;pressure_sealevel;temperature;humidity
75942;BME280;64622;46.220;19.878;2023-07-16T00:01:19;100364.00;;;20.80;97.42
75942;BME280;64622;46.220;19.878;2023-07-16T00:03:47;100353.41;;;20.72;98.24
75942;BME280;64622;46.220;19.878;2023-07-16T00:06:13;100357.41;;;20.69;98.67
75942;BME280;64622;46.220;19.878;2023-07-16T00:08:40;100364.94;;;20.67;99.24
75942;BME280;64622;46.220;19.878;2023-07-16T00:11:06;100361.34;;;20.49;99.76
75942;BME280;64622;46.220;19.878;2023-07-16T00:13:33;100354.84;;;20.50;100.00
75942;BME280;64622;46.220;19.878;2023-07-16T00:15:59;100355.87;;;20.49;100.00
75942;BME280;64622;46.220;19.878;2023-07-16T00:18:26;100358.34;;;20.57;100.00
75942;BME280;64622;46.220;19.878;2023-07-16T00:20:53;100358.94;;;20.59;100.00
75942;BME280;64622;46.220;19.878;2023-07-16T00:23:19;100349.19;;;20.51;100.00
75942;BME280;64622;46.220;19.878;2023-07-16T00:25:46;100350.50;;;20.42;100.00
75942;BME280;64622;46.220;19.878;2023-07-16T00:28:12;100351.59;;;20.35;100.00
75942;BME280;64622;46.220;19.878;2023-07-16T00:30:39;100363.88;;;20.44;100.00
75942;BME280;64622;46.220;19.878;2023-07-16T00:33:07;100361.53;;;20.47;100.00
75942;BME280;64622;46.220;19.878;2023-07-16T00:35:34;100356.81;;;20.61;100.00
75942;BME280;64622;46.220;19.878;2023-07-16T00:38:00;100363.28;;;20.66;100.00
75942;BME280;64622;46.220;19.878;2023-07-16T00:40:27;100350.28;;;20.44;100.00
75942;BME280;64622;46.220;19.878;2023-07-16T00:42:54;100356.59;;;20.38;100.00
75942;BME280;64622;46.220;19.878;2023-07-16T00:45:20;100349.37;;;20.25;100.00
75942;BME280;64622;46.220;19.878;2023-07-16T00:47:47;100344.03;;;20.12;100.00
75942;BME280;64622;46.220;19.878;2023-07-16T00:50:14;100348.19;;;20.15;100.00
75942;BME280;64622;46.220;19.878;2023-07-16T00:52:40;100357.62;;;20.06;100.00
75942;BME280;64622;46.220;19.878;2023-07-16T00:55:08;100347.62;;;20.00;100.00
75942;BME280;64622;46.220;19.878;2023-07-16T00:57:36;100338.66;;;19.99;100.00
75942;BME280;64622;46.220;19.878;2023-07-16T01:00:03;100346.81;;;19.99;100.00
75942;BME280;64622;46.220;19.878;2023-07-16T01:02:30;100346.63;;;19.94;100.00
75942;BME280;64622;46.220;19.878;2023-07-16T01:04:57;100350.22;;;19.88;100.00
75942;BME280;64622;46.220;19.878;2023-07-16T01:07:25;100344.00;;;19.75;100.00
75942;BME280;64622;46.220;19.878;2023-07-16T01:09:55;100343.00;;;19.69;100.00
75942;BME280;64622;46.220;19.878;2023-07-16T01:12:22;100328.53;;;19.75;100.00
75942;BME280;64622;46.220;19.878;2023-07-16T01:14:51;100333.50;;;19.85;100.00
75942;BME280;64622;46.220;19.878;2023-07-16T01:17:18;100322.28;;;19.75;100.00
75942;BME280;64622;46.220;19.878;2023-07-16T01:19:45;100330.00;;;19.78;100.00
75942;BME280;64622;46.220;19.878;2023-07-16T01:22:40;100333.94;;;19.82;100.00
75942;BME280;64622;46.220;19.878;2023-07-16T01:28:05;100333.84;;;19.95;100.00
75942;BME280;64622;46.220;19.878;2023-07-16T01:30:37;100331.31;;;20.00;100.00
75942;BME280;64622;46.220;19.878;2023-07-16T01:33:07;100325.34;;;19.85;100.00
75942;BME280;64622;46.220;19.878;2023-07-16T01:35:36;100326.69;;;19.76;100.00
75942;BME280;64622;46.220;19.878;2023-07-16T01:38:03;100335.47;;;19.65;100.00
75942;BME280;64622;46.220;19.878;2023-07-16T01:40:30;100328.19;;;19.59;100.00
75942;BME280;64622;46.220;19.878;2023-07-16T01:42:58;100317.63;;;19.44;100.00
75942;BME280;64622;46.220;19.878;2023-07-16T01:45:25;100313.66;;;19.47;100.00
75942;BME280;64622;46.220;19.878;2023-07-16T01:48:30;100323.88;;;19.45;100.00
75942;BME280;64622;46.220;19.878;2023-07-16T01:50:58;100318.91;;;19.42;100.00
75942;BME280;64622;46.220;19.878;2023-07-16T01:53:25;100318.72;;;19.37;100.00
75942;BME280;64622;46.220;19.878;2023-07-16T01:55:52;100317.84;;;19.43;100.00
75942;BME280;64622;46.220;19.878;2023-07-16T01:58:22;100309.72;;;19.30;100.00
75942;BME280;64622;46.220;19.878;2023-07-16T02:00:50;100318.72;;;19.37;100.00
75942;BME280;64622;46.220;19.878;2023-07-16T02:03:16;100314.53;;;19.41;100.00
75942;BME280;64622;46.220;19.878;2023-07-16T02:05:43;100320.56;;;19.36;100.00
75942;BME280;64622;46.220;19.878;2023-07-16T02:08:10;100304.06;;;19.38;100.00
75942;BME280;64622;46.220;19.878;2023-07-16T02:10:37;100317.59;;;19.51;100.00
75942;BME280;64622;46.220;19.878;2023-07-16T02:13:03;100308.81;;;19.49;100.00
75942;BME280;64622;46.220;19.878;2023-07-16T02:15:30;100307.41;;;19.40;100.00
75942;BME280;64622;46.220;19.878;2023-07-16T02:17:57;100309.31;;;19.39;100.00
75942;BME280;64622;46.220;19.878;2023-07-16T02:20:23;100314.72;;;19.46;100.00
75942;BME280;64622;46.220;19.878;2023-07-16T02:22:50;100313.62;;;19.53;100.00
75942;BME280;64622;46.220;19.878;2023-07-16T02:25:17;100302.16;;;19.45;100.00
75942;BME280;64622;46.220;19.878;2023-07-16T02:27:46;100304.28;;;19.36;100.00
75942;BME280;64622;46.220;19.878;2023-07-16T02:30:14;100305.09;;;19.43;100.00
75942;BME280;64622;46.220;19.878;2023-07-16T02:32:43;100300.75;;;19.36;100.00
75942;BME280;64622;46.220;19.878;2023-07-16T02:35:10;100305.09;;;19.43;100.00
75942;BME280;64622;46.220;19.878;2023-07-16T02:37:37;100300.69;;;19.42;100.00
75942;BME280;64622;46.220;19.878;2023-07-16T02:40:05;100309.31;;;19.33;100.00
75942;BME280;64622;46.220;19.878;2023-07-16T02:42:32;100311.22;;;19.19;100.00
75942;BME280;64622;46.220;19.878;2023-07-16T02:44:58;100313.72;;;19.21;100.00
75942;BME280;64622;46.220;19.878;2023-07-16T02:47:25;100318.75;;;19.24;100.00
75942;BME280;64622;46.220;19.878;2023-07-16T02:49:52;100318.50;;;19.19;100.00
75942;BME280;64622;46.220;19.878;2023-07-16T02:52:19;100321.03;;;19.07;100.00
75942;BME280;64622;46.220;19.878;2023-07-16T02:54:45;100309.59;;;19.05;100.00
75942;BME280;64622;46.220;19.878;2023-07-16T02:57:12;100315.41;;;19.09;100.00
75942;BME280;64622;46.220;19.878;2023-07-16T02:59:39;100315.81;;;19.12;100.00
75942;BME280;64622;46.220;19.878;2023-07-16T03:02:05;100318.13;;;19.09;100.00
75942;BME280;64622;46.220;19.878;2023-07-16T03:04:33;100315.00;;;19.05;100.00
75942;BME280;64622;46.220;19.878;2023-07-16T03:06:59;100318.97;;;19.09;100.00
75942;BME280;64622;46.220;19.878;2023-07-16T03:09:26;100314.59;;;19.08;100.00
75942;BME280;64622;46.220;19.878;2023-07-16T03:11:52;100316.66;;;19.06;100.00
75942;BME280;64622;46.220;19.878;2023-07-16T03:14:19;100310.84;;;19.09;100.00
75942;BME280;64622;46.220;19.878;2023-07-16T03:16:46;100311.00;;;19.27;100.00
75942;BME280;64622;46.220;19.878;2023-07-16T03:19:12;100313.69;;;19.34;100.00
75942;BME280;64622;46.220;19.878;2023-07-16T03:21:39;100313.69;;;19.40;100.00
75942;BME280;64622;46.220;19.878;2023-07-16T03:24:06;100314.28;;;19.42;100.00
75942;BME280;64622;46.220;19.878;2023-07-16T03:26:33;100322.19;;;19.50;100.00
75942;BME280;64622;46.220;19.878;2023-07-16T03:29:00;100317.59;;;19.51;100.00
75942;BME280;64622;46.220;19.878;2023-07-16T03:31:27;100312.38;;;19.49;100.00
75942;BME280;64622;46.220;19.878;2023-07-16T03:33:53;100326.72;;;19.63;100.00
75942;BME280;64622;46.220;19.878;2023-07-16T03:36:20;100311.03;;;19.65;100.00
75942;BME280;64622;46.220;19.878;2023-07-16T03:38:49;100328.97;;;19.72;100.00
75942;BME280;64622;46.220;19.878;2023-07-16T03:41:16;100332.28;;;19.81;100.00
75942;BME280;64622;46.220;19.878;2023-07-16T03:43:43;100328.47;;;19.88;100.00
75942;BME280;64622;46.220;19.878;2023-07-16T03:46:10;100329.66;;;19.99;100.00
75942;BME280;64622;46.220;19.878;2023-07-16T03:48:37;100324.78;;;20.14;100.00
75942;BME280;64622;46.220;19.878;2023-07-16T03:51:04;100328.22;;;20.27;100.00
75942;BME280;64622;46.220;19.878;2023-07-16T03:53:31;100323.59;;;20.34;100.00
75942;BME280;64622;46.220;19.878;2023-07-16T03:55:58;100329.28;;;20.51;100.00
75942;BME280;64622;46.220;19.878;2023-07-16T03:58:25;100326.84;;;20.67;100.00
75942;BME280;64622;46.220;19.878;2023-07-16T04:00:54;100338.44;;;20.81;100.00
75942;BME280;64622;46.220;19.878;2023-07-16T04:03:22;100332.19;;;20.80;100.00
75942;BME280;64622;46.220;19.878;2023-07-16T04:05:48;100339.06;;;21.07;100.00
75942;BME280;64622;46.220;19.878;2023-07-16T04:08:15;100336.88;;;21.16;100.00
75942;BME280;64622;46.220;19.878;2023-07-16T04:10:42;100345.19;;;21.21;100.00
75942;BME280;64622;46.220;19.878;2023-07-16T04:13:08;100331.81;;;21.19;100.00
75942;BME280;64622;46.220;19.878;2023-07-16T04:15:35;100338.41;;;21.12;100.00
75942;BME280;64622;46.220;19.878;2023-07-16T04:18:02;100337.72;;;21.34;100.00
75942;BME280;64622;46.220;19.878;2023-07-16T04:20:30;100343.16;;;21.34;100.00
75942;BME280;64622;46.220;19.878;2023-07-16T04:22:57;100349.34;;;21.41;100.00
75942;BME280;64622;46.220;19.878;2023-07-16T04:25:24;100346.09;;;21.51;100.00
75942;BME280;64622;46.220;19.878;2023-07-16T04:27:50;100335.22;;;21.69;100.00
75942;BME280;64622;46.220;19.878;2023-07-16T04:30:17;100354.63;;;21.90;100.00
75942;BME280;64622;46.220;19.878;2023-07-16T04:32:44;100346.94;;;22.17;100.00
75942;BME280;64622;46.220;19.878;2023-07-16T04:35:10;100347.78;;;22.29;100.00
75942;BME280;64622;46.220;19.878;2023-07-16T04:37:37;100334.09;;;22.58;100.00
75942;BME280;64622;46.220;19.878;2023-07-16T04:40:05;100342.78;;;22.67;100.00
75942;BME280;64622;46.220;19.878;2023-07-16T04:42:31;100348.59;;;22.70;100.00
75942;BME280;64622;46.220;19.878;2023-07-16T04:44:58;100355.37;;;22.91;100.00
75942;BME280;64622;46.220;19.878;2023-07-16T04:47:25;100360.97;;;23.19;100.00
75942;BME280;64622;46.220;19.878;2023-07-16T04:49:51;100349.91;;;23.37;100.00
75942;BME280;64622;46.220;19.878;2023-07-16T04:52:17;100358.59;;;23.22;100.00
75942;BME280;64622;46.220;19.878;2023-07-16T04:54:44;100358.38;;;23.24;100.00
75942;BME280;64622;46.220;19.878;2023-07-16T04:57:11;100355.25;;;23.43;100.00
75942;BME280;64622;46.220;19.878;2023-07-16T04:59:37;100352.44;;;23.78;100.00
75942;BME280;64622;46.220;19.878;2023-07-16T05:02:05;100354.09;;;24.07;98.87
75942;BME280;64622;46.220;19.878;2023-07-16T05:04:35;100360.31;;;24.47;97.32
75942;BME280;64622;46.220;19.878;2023-07-16T05:07:02;100364.91;;;24.41;97.20
75942;BME280;64622;46.220;19.878;2023-07-16T05:09:29;100366.25;;;25.05;94.65
75942;BME280;64622;46.220;19.878;2023-07-16T05:11:56;100362.03;;;24.64;97.15
75942;BME280;64622;46.220;19.878;2023-07-16T05:14:26;100362.72;;;24.43;98.79
75942;BME280;64622;46.220;19.878;2023-07-16T05:16:53;100365.28;;;24.78;97.55
75942;BME280;64622;46.220;19.878;2023-07-16T05:19:20;100378.69;;;25.12;94.81
75942;BME280;64622;46.220;19.878;2023-07-16T05:21:46;100361.84;;;25.58;92.73
75942;BME280;64622;46.220;19.878;2023-07-16T05:24:13;100369.84;;;25.43;93.67
75942;BME280;64622;46.220;19.878;2023-07-16T05:26:40;100368.47;;;25.84;91.85
75942;BME280;64622;46.220;19.878;2023-07-16T05:29:06;100372.03;;;25.84;90.87
75942;BME280;64622;46.220;19.878;2023-07-16T05:31:33;100380.31;;;25.89;90.89
75942;BME280;64622;46.220;19.878;2023-07-16T05:34:00;100390.03;;;25.97;90.75
75942;BME280;64622;46.220;19.878;2023-07-16T05:36:26;100393.94;;;25.58;93.17
75942;BME280;64622;46.220;19.878;2023-07-16T05:38:53;100388.22;;;25.43;94.18
75942;BME280;64622;46.220;19.878;2023-07-16T05:41:20;100390.03;;;25.97;92.00
75942;BME280;64622;46.220;19.878;2023-07-16T05:43:46;100389.53;;;26.00;92.01
75942;BME280;64622;46.220;19.878;2023-07-16T05:46:13;100394.38;;;25.93;92.01
75942;BME280;64622;46.220;19.878;2023-07-16T05:48:39;100387.25;;;25.92;91.91
75942;BME280;64622;46.220;19.878;2023-07-16T05:51:06;100381.84;;;26.50;89.47
75942;BME280;64622;46.220;19.878;2023-07-16T05:53:33;100380.88;;;27.24;84.89
75942;BME280;64622;46.220;19.878;2023-07-16T05:55:59;100390.13;;;26.81;87.31
75942;BME280;64622;46.220;19.878;2023-07-16T05:58:26;100395.88;;;26.80;88.23
75942;BME280;64622;46.220;19.878;2023-07-16T06:00:53;100395.38;;;26.88;86.66
75942;BME280;64622;46.220;19.878;2023-07-16T06:03:20;100391.62;;;26.94;85.87
75942;BME280;64622;46.220;19.878;2023-07-16T06:05:47;100393.37;;;27.10;85.75
75942;BME280;64622;46.220;19.878;2023-07-16T06:08:13;100389.28;;;28.10;80.42
75942;BME280;64622;46.220;19.878;2023-07-16T06:10:40;100399.03;;;28.43;78.03
75942;BME280;64622;46.220;19.878;2023-07-16T06:13:07;100396.19;;;27.56;82.97
75942;BME280;64622;46.220;19.878;2023-07-16T06:15:33;100392.91;;;28.21;79.63
75942;BME280;64622;46.220;19.878;2023-07-16T06:18:00;100392.34;;;28.24;77.82
75942;BME280;64622;46.220;19.878;2023-07-16T06:20:27;100388.00;;;28.43;78.09
75942;BME280;64622;46.220;19.878;2023-07-16T06:22:55;100392.44;;;28.54;77.80
75942;BME280;64622;46.220;19.878;2023-07-16T06:25:21;100395.75;;;28.56;76.60
75942;BME280;64622;46.220;19.878;2023-07-16T06:27:48;100404.56;;;28.83;75.74
75942;BME280;64622;46.220;19.878;2023-07-16T06:30:15;100401.81;;;28.73;75.82
75942;BME280;64622;46.220;19.878;2023-07-16T06:32:42;100406.50;;;28.62;76.77
75942;BME280;64622;46.220;19.878;2023-07-16T06:35:08;100411.62;;;28.34;77.55
75942;BME280;64622;46.220;19.878;2023-07-16T06:37:35;100403.75;;;28.62;75.58
75942;BME280;64622;46.220;19.878;2023-07-16T06:40:02;100392.75;;;28.77;74.76
75942;BME280;64622;46.220;19.878;2023-07-16T06:42:30;100395.72;;;29.61;70.57
75942;BME280;64622;46.220;19.878;2023-07-16T06:44:56;100399.94;;;29.03;72.42
75942;BME280;64622;46.220;19.878;2023-07-16T06:47:23;100401.03;;;29.12;72.84
75942;BME280;64622;46.220;19.878;2023-07-16T06:49:49;100400.16;;;29.57;70.24
75942;BME280;64622;46.220;19.878;2023-07-16T06:52:23;100385.81;;;30.67;66.75
75942;BME280;64622;46.220;19.878;2023-07-16T06:54:54;100398.84;;;30.56;66.32
75942;BME280;64622;46.220;19.878;2023-07-16T06:57:22;100399.37;;;30.20;66.70
75942;BME280;64622;46.220;19.878;2023-07-16T06:59:49;100393.63;;;30.55;66.04
75942;BME280;64622;46.220;19.878;2023-07-16T07:02:17;100390.81;;;29.08;71.20
75942;BME280;64622;46.220;19.878;2023-07-16T07:04:44;100395.63;;;29.86;69.03
75942;BME280;64622;46.220;19.878;2023-07-16T07:07:10;100391.53;;;29.78;69.96
75942;BME280;64622;46.220;19.878;2023-07-16T07:09:37;100382.28;;;30.03;67.83
75942;BME280;64622;46.220;19.878;2023-07-16T07:12:04;100390.81;;;30.16;69.53
75942;BME280;64622;46.220;19.878;2023-07-16T07:14:30;100392.66;;;29.72;69.29
75942;BME280;64622;46.220;19.878;2023-07-16T07:16:58;100389.63;;;30.76;66.19
75942;BME280;64622;46.220;19.878;2023-07-16T07:19:25;100389.78;;;31.23;64.49
75942;BME280;64622;46.220;19.878;2023-07-16T07:21:51;100389.28;;;31.68;61.95
75942;BME280;64622;46.220;19.878;2023-07-16T07:24:18;100399.06;;;31.03;62.92
75942;BME280;64622;46.220;19.878;2023-07-16T07:26:44;100388.06;;;30.98;65.15
75942;BME280;64622;46.220;19.878;2023-07-16T07:29:11;100380.19;;;31.39;62.35
75942;BME280;64622;46.220;19.878;2023-07-16T07:31:38;100382.09;;;31.67;62.50
75942;BME280;64622;46.220;19.878;2023-07-16T07:34:04;100383.97;;;31.72;61.81
75942;BME280;64622;46.220;19.878;2023-07-16T07:36:31;100370.88;;;31.01;63.43
75942;BME280;64622;46.220;19.878;2023-07-16T07:38:58;100378.53;;;31.09;63.13
75942;BME280;64622;46.220;19.878;2023-07-16T07:41:24;100377.31;;;31.26;62.98
75942;BME280;64622;46.220;19.878;2023-07-16T07:43:51;100378.09;;;31.31;62.13
75942;BME280;64622;46.220;19.878;2023-07-16T07:46:18;100387.34;;;31.69;61.40
75942;BME280;64622;46.220;19.878;2023-07-16T07:48:44;100376.13;;;32.44;58.55
75942;BME280;64622;46.220;19.878;2023-07-16T07:51:11;100385.56;;;32.43;58.11
75942;BME280;64622;46.220;19.878;2023-07-16T07:53:38;100375.09;;;32.59;56.53
75942;BME280;64622;46.220;19.878;2023-07-16T07:56:05;100381.22;;;33.65;53.51
75942;BME280;64622;46.220;19.878;2023-07-16T07:58:31;100374.12;;;32.31;56.71
75942;BME280;64622;46.220;19.878;2023-07-16T08:01:04;100379.63;;;33.19;54.88
75942;BME280;64622;46.220;19.878;2023-07-16T08:03:31;100393.59;;;34.13;51.10
75942;BME280;64622;46.220;19.878;2023-07-16T08:05:58;100377.97;;;33.63;53.35
75942;BME280;64622;46.220;19.878;2023-07-16T08:08:24;100383.47;;;33.36;53.71
75942;BME280;64622;46.220;19.878;2023-07-16T08:10:51;100375.97;;;34.67;49.12
75942;BME280;64622;46.220;19.878;2023-07-16T08:13:17;100387.41;;;33.62;53.19
75942;BME280;64622;46.220;19.878;2023-07-16T08:15:43;100379.19;;;33.12;53.69
75942;BME280;64622;46.220;19.878;2023-07-16T08:18:11;100377.00;;;35.15;48.41
75942;BME280;64622;46.220;19.878;2023-07-16T08:20:37;100381.38;;;35.68;47.18
75942;BME280;64622;46.220;19.878;2023-07-16T08:23:04;100377.47;;;36.34;45.46
75942;BME280;64622;46.220;19.878;2023-07-16T08:25:31;100379.81;;;34.57;47.58
75942;BME280;64622;46.220;19.878;2023-07-16T08:27:57;100375.06;;;33.55;51.03
75942;BME280;64622;46.220;19.878;2023-07-16T08:30:24;100383.84;;;33.16;51.69
75942;BME280;64622;46.220;19.878;2023-07-16T08:32:50;100378.31;;;34.24;47.25
75942;BME280;64622;46.220;19.878;2023-07-16T08:35:17;100382.97;;;34.42;46.92
75942;BME280;64622;46.220;19.878;2023-07-16T08:37:45;100369.00;;;33.53;49.68
75942;BME280;64622;46.220;19.878;2023-07-16T08:40:12;100379.87;;;34.30;48.76
75942;BME280;64622;46.220;19.878;2023-07-16T08:42:40;100382.31;;;35.64;44.75
75942;BME280;64622;46.220;19.878;2023-07-16T08:45:07;100373.28;;;34.26;47.56
75942;BME280;64622;46.220;19.878;2023-07-16T08:47:36;100375.81;;;33.87;49.42
75942;BME280;64622;46.220;19.878;2023-07-16T08:50:03;100374.50;;;34.34;47.73
75942;BME280;64622;46.220;19.878;2023-07-16T08:52:30;100373.47;;;35.62;45.41
75942;BME280;64622;46.220;19.878;2023-07-16T08:54:58;100374.28;;;33.95;48.30
75942;BME280;64622;46.220;19.878;2023-07-16T08:57:25;100384.59;;;34.65;47.89
75942;BME280;64622;46.220;19.878;2023-07-16T08:59:53;100375.84;;;35.16;44.59
75942;BME280;64622;46.220;19.878;2023-07-16T09:02:22;100369.72;;;35.66;45.00
75942;BME280;64622;46.220;19.878;2023-07-16T09:04:49;100379.53;;;34.45;46.11
75942;BME280;64622;46.220;19.878;2023-07-16T09:07:18;100380.34;;;33.83;46.56
75942;BME280;64622;46.220;19.878;2023-07-16T09:09:58;100368.12;;;35.13;44.37
75942;BME280;64622;46.220;19.878;2023-07-16T09:12:26;100372.03;;;35.34;44.41
75942;BME280;64622;46.220;19.878;2023-07-16T09:14:53;100370.91;;;35.13;42.66
75942;BME280;64622;46.220;19.878;2023-07-16T09:17:24;100368.81;;;35.79;40.05
75942;BME280;64622;46.220;19.878;2023-07-16T09:19:51;100368.22;;;34.77;44.20
75942;BME280;64622;46.220;19.878;2023-07-16T09:22:19;100370.00;;;35.56;43.72
75942;BME280;64622;46.220;19.878;2023-07-16T09:24:47;100375.56;;;35.95;41.05
75942;BME280;64622;46.220;19.878;2023-07-16T09:27:14;100366.69;;;35.46;43.07
75942;BME280;64622;46.220;19.878;2023-07-16T09:29:44;100369.56;;;35.71;42.49
75942;BME280;64622;46.220;19.878;2023-07-16T09:32:10;100372.09;;;35.42;42.49
75942;BME280;64622;46.220;19.878;2023-07-16T09:34:37;100367.91;;;35.31;43.83
75942;BME280;64622;46.220;19.878;2023-07-16T09:37:05;100368.81;;;35.49;43.12
75942;BME280;64622;46.220;19.878;2023-07-16T09:39:32;100366.03;;;35.79;43.52
75942;BME280;64622;46.220;19.878;2023-07-16T09:42:02;100366.59;;;36.07;41.46
75942;BME280;64622;46.220;19.878;2023-07-16T09:44:29;100364.44;;;35.56;43.16
75942;BME280;64622;46.220;19.878;2023-07-16T09:46:56;100356.50;;;35.11;43.57
75942;BME280;64622;46.220;19.878;2023-07-16T09:49:22;100362.50;;;38.07;38.07
75942;BME280;64622;46.220;19.878;2023-07-16T09:51:52;100372.09;;;36.46;39.92
75942;BME280;64622;46.220;19.878;2023-07-16T09:54:23;100363.28;;;35.96;41.37
75942;BME280;64622;46.220;19.878;2023-07-16T09:56:55;100349.94;;;36.66;40.14
75942;BME280;64622;46.220;19.878;2023-07-16T09:59:30;100359.28;;;36.96;40.64
75942;BME280;64622;46.220;19.878;2023-07-16T10:01:58;100358.16;;;36.88;41.18
75942;BME280;64622;46.220;19.878;2023-07-16T10:04:25;100360.00;;;37.76;37.23
75942;BME280;64622;46.220;19.878;2023-07-16T10:06:54;100356.75;;;37.74;36.20
75942;BME280;64622;46.220;19.878;2023-07-16T10:09:42;100349.56;;;36.08;37.79
75942;BME280;64622;46.220;19.878;2023-07-16T10:12:18;100356.91;;;38.27;33.79
75942;BME280;64622;46.220;19.878;2023-07-16T10:14:47;100356.31;;;37.64;35.35
75942;BME280;64622;46.220;19.878;2023-07-16T10:17:18;100337.81;;;36.71;37.65
75942;BME280;64622;46.220;19.878;2023-07-16T10:19:57;100338.09;;;36.18;38.64
75942;BME280;64622;46.220;19.878;2023-07-16T10:22:46;100334.78;;;36.16;40.61
75942;BME280;64622;46.220;19.878;2023-07-16T10:27:47;100340.28;;;38.10;36.11
75942;BME280;64622;46.220;19.878;2023-07-16T10:30:14;100331.06;;;38.71;33.81
75942;BME280;64622;46.220;19.878;2023-07-16T10:32:42;100330.75;;;36.39;37.93
75942;BME280;64622;46.220;19.878;2023-07-16T10:35:09;100329.03;;;37.23;36.19
75942;BME280;64622;46.220;19.878;2023-07-16T10:37:37;100322.63;;;35.87;39.64
75942;BME280;64622;46.220;19.878;2023-07-16T10:40:05;100322.84;;;36.16;39.01
75942;BME280;64622;46.220;19.878;2023-07-16T10:42:32;100315.19;;;37.27;36.65
75942;BME280;64622;46.220;19.878;2023-07-16T10:45:00;100320.34;;;38.32;35.28
75942;BME280;64622;46.220;19.878;2023-07-16T10:47:35;100318.59;;;39.01;32.05
75942;BME280;64622;46.220;19.878;2023-07-16T10:50:07;100309.47;;;39.37;31.70
75942;BME280;64622;46.220;19.878;2023-07-16T10:52:35;100315.06;;;37.52;35.38
75942;BME280;64622;46.220;19.878;2023-07-16T10:55:02;100320.03;;;37.55;35.68
75942;BME280;64622;46.220;19.878;2023-07-16T10:57:29;100319.41;;;38.08;34.63
75942;BME280;64622;46.220;19.878;2023-07-16T10:59:57;100313.41;;;37.68;34.06
75942;BME280;64622;46.220;19.878;2023-07-16T11:02:25;100315.78;;;38.07;32.51
75942;BME280;64622;46.220;19.878;2023-07-16T11:04:52;100316.97;;;37.31;33.95
75942;BME280;64622;46.220;19.878;2023-07-16T11:07:23;100305.91;;;36.97;34.05
75942;BME280;64622;46.220;19.878;2023-07-16T11:09:54;100310.88;;;36.24;35.43
75942;BME280;64622;46.220;19.878;2023-07-16T11:12:22;100306.94;;;37.39;33.91
75942;BME280;64622;46.220;19.878;2023-07-16T11:14:52;100299.91;;;36.78;34.63
75942;BME280;64622;46.220;19.878;2023-07-16T11:17:20;100308.06;;;36.92;34.38
75942;BME280;64622;46.220;19.878;2023-07-16T11:19:50;100305.97;;;36.63;35.24
75942;BME280;64622;46.220;19.878;2023-07-16T11:22:17;100297.13;;;36.44;36.52
75942;BME280;64622;46.220;19.878;2023-07-16T11:24:46;100307.03;;;35.77;37.52
75942;BME280;64622;46.220;19.878;2023-07-16T11:27:16;100304.97;;;36.08;36.67
75942;BME280;64622;46.220;19.878;2023-07-16T11:29:47;100301.34;;;35.99;35.50
75942;BME280;64622;46.220;19.878;2023-07-16T11:32:31;100304.28;;;35.16;37.83
75942;BME280;64622;46.220;19.878;2023-07-16T11:35:00;100304.41;;;35.33;36.77
75942;BME280;64622;46.220;19.878;2023-07-16T11:37:28;100297.41;;;35.44;37.40
75942;BME280;64622;46.220;19.878;2023-07-16T11:40:02;100306.69;;;35.31;38.10
75942;BME280;64622;46.220;19.878;2023-07-16T11:42:31;100302.41;;;37.17;35.21
75942;BME280;64622;46.220;19.878;2023-07-16T11:44:58;100302.88;;;37.94;34.32
75942;BME280;64622;46.220;19.878;2023-07-16T11:47:26;100299.53;;;36.88;35.64
75942;BME280;64622;46.220;19.878;2023-07-16T11:49:54;100305.63;;;37.74;33.64
75942;BME280;64622;46.220;19.878;2023-07-16T11:52:27;100310.38;;;36.39;35.65
75942;BME280;64622;46.220;19.878;2023-07-16T11:54:58;100297.97;;;39.18;31.32
75942;BME280;64622;46.220;19.878;2023-07-16T11:57:28;100291.00;;;39.96;29.18
75942;BME280;64622;46.220;19.878;2023-07-16T11:59:55;100304.91;;;40.04;29.65
75942;BME280;64622;46.220;19.878;2023-07-16T12:02:22;100294.78;;;38.01;33.06
75942;BME280;64622;46.220;19.878;2023-07-16T12:04:49;100295.28;;;38.03;33.20
75942;BME280;64622;46.220;19.878;2023-07-16T12:07:15;100305.53;;;37.91;33.19
75942;BME280;64622;46.220;19.878;2023-07-16T12:09:42;100295.69;;;38.34;31.55
75942;BME280;64622;46.220;19.878;2023-07-16T12:12:09;100285.97;;;40.01;29.08
75942;BME280;64622;46.220;19.878;2023-07-16T12:14:35;100302.00;;;40.95;27.50
75942;BME280;64622;46.220;19.878;2023-07-16T12:17:02;100290.72;;;41.85;26.31
75942;BME280;64622;46.220;19.878;2023-07-16T12:19:29;100281.50;;;40.52;27.83
75942;BME280;64622;46.220;19.878;2023-07-16T12:21:58;100275.28;;;39.79;29.05
75942;BME280;64622;46.220;19.878;2023-07-16T12:24:25;100279.78;;;39.12;30.33
75942;BME280;64622;46.220;19.878;2023-07-16T12:26:52;100271.63;;;37.34;32.66
75942;BME280;64622;46.220;19.878;2023-07-16T12:29:18;100284.91;;;37.46;33.63
75942;BME280;64622;46.220;19.878;2023-07-16T12:31:45;100274.53;;;37.00;33.37
75942;BME280;64622;46.220;19.878;2023-07-16T12:34:12;100280.34;;;36.02;34.72
75942;BME280;64622;46.220;19.878;2023-07-16T12:36:38;100270.87;;;36.28;34.86
75942;BME280;64622;46.220;19.878;2023-07-16T12:39:05;100278.88;;;35.96;36.99
75942;BME280;64622;46.220;19.878;2023-07-16T12:41:31;100269.56;;;36.68;34.97
75942;BME280;64622;46.220;19.878;2023-07-16T12:43:58;100252.81;;;38.63;31.78